Gilbert Plains, Canada
Current Conditions -  °F | °C
As of 8:34 AM on Friday 28 Nov 2014 (Local Time) from CYDN Reporting Station
Light Snow Light Snow  
Wind Chill: -11°   Ceiling: 2500
Heat Index:   Visibility: 2mi
Dew Point:   Wind: 12mph
Humidity: 85%   Direction: 70°ENE
Pressure: 30.01"   Gusts: NA
Location:  51.13°N, 100.48°W
Report Text: CYDN 281434Z AUTO 07010KT 2SM -SN OVC025 M15/M17 A3001 RMK PRESFR SLP192
Loading
Personal Weather Stations






























Interactive Weather Map New forecast layout! Learn more

10-Day Weather Forecast

Advertisements
Track Severe Weather on mobile